sensor_id;sensor_type;location;lat;lon;timestamp;pressure;altitude;pressure_sealevel;temperature;humidity
72636;BME280;60679;48.888;15.544;2022-11-18T00:00:17;94705.69;;;2.85;88.27
72636;BME280;60679;48.888;15.544;2022-11-18T00:02:42;94715.56;;;2.85;88.23
72636;BME280;60679;48.888;15.544;2022-11-18T00:05:08;94710.81;;;2.87;88.60
72636;BME280;60679;48.888;15.544;2022-11-18T00:07:33;94707.31;;;2.86;88.43
72636;BME280;60679;48.888;15.544;2022-11-18T00:09:58;94704.88;;;2.85;88.26
72636;BME280;60679;48.888;15.544;2022-11-18T00:12:24;94697.75;;;2.79;88.19
72636;BME280;60679;48.888;15.544;2022-11-18T00:15:08;94709.81;;;2.81;88.19
72636;BME280;60679;48.888;15.544;2022-11-18T00:17:36;94710.03;;;2.80;87.97
72636;BME280;60679;48.888;15.544;2022-11-18T00:20:05;94705.94;;;2.77;88.34
72636;BME280;60679;48.888;15.544;2022-11-18T00:22:33;94709.66;;;2.76;88.26
72636;BME280;60679;48.888;15.544;2022-11-18T00:25:02;94702.44;;;2.77;88.46
72636;BME280;60679;48.888;15.544;2022-11-18T00:27:30;94709.00;;;2.81;88.47
72636;BME280;60679;48.888;15.544;2022-11-18T00:29:56;94714.31;;;2.81;88.48
72636;BME280;60679;48.888;15.544;2022-11-18T00:32:22;94715.78;;;2.77;88.10
72636;BME280;60679;48.888;15.544;2022-11-18T00:34:59;94713.13;;;2.77;88.46
72636;BME280;60679;48.888;15.544;2022-11-18T00:37:28;94696.09;;;2.78;88.35
72636;BME280;60679;48.888;15.544;2022-11-18T00:39:56;94703.06;;;2.79;88.31
72636;BME280;60679;48.888;15.544;2022-11-18T00:42:22;94698.75;;;2.78;88.46
72636;BME280;60679;48.888;15.544;2022-11-18T00:45:07;94693.66;;;2.76;88.38
72636;BME280;60679;48.888;15.544;2022-11-18T00:47:36;94700.84;;;2.76;88.42
72636;BME280;60679;48.888;15.544;2022-11-18T00:50:08;94701.03;;;2.74;88.21
72636;BME280;60679;48.888;15.544;2022-11-18T00:52:33;94695.09;;;2.72;88.46
72636;BME280;60679;48.888;15.544;2022-11-18T00:55:06;94699.03;;;2.70;88.45
72636;BME280;60679;48.888;15.544;2022-11-18T00:57:38;94699.03;;;2.70;88.50
72636;BME280;60679;48.888;15.544;2022-11-18T01:00:10;94702.72;;;2.69;88.47
72636;BME280;60679;48.888;15.544;2022-11-18T01:02:45;94701.69;;;2.70;88.34
72636;BME280;60679;48.888;15.544;2022-11-18T01:05:10;94695.53;;;2.69;88.17
72636;BME280;60679;48.888;15.544;2022-11-18T01:07:47;94695.09;;;2.72;88.57
72636;BME280;60679;48.888;15.544;2022-11-18T01:10:12;94697.56;;;2.74;88.39
72636;BME280;60679;48.888;15.544;2022-11-18T01:12:44;94695.72;;;2.74;88.60
72636;BME280;60679;48.888;15.544;2022-11-18T01:15:28;94695.72;;;2.74;88.43
72636;BME280;60679;48.888;15.544;2022-11-18T01:17:54;94691.03;;;2.70;88.37
72636;BME280;60679;48.888;15.544;2022-11-18T01:20:20;94677.97;;;2.62;88.32
72636;BME280;60679;48.888;15.544;2022-11-18T01:22:45;94675.72;;;2.59;88.60
72636;BME280;60679;48.888;15.544;2022-11-18T01:25:10;94683.50;;;2.60;88.60
72636;BME280;60679;48.888;15.544;2022-11-18T01:27:36;94678.66;;;2.51;88.28
72636;BME280;60679;48.888;15.544;2022-11-18T01:30:01;94670.69;;;2.44;88.57
72636;BME280;60679;48.888;15.544;2022-11-18T01:32:30;94666.34;;;2.50;88.87
72636;BME280;60679;48.888;15.544;2022-11-18T01:34:58;94665.31;;;2.51;88.39
72636;BME280;60679;48.888;15.544;2022-11-18T01:37:24;94666.16;;;2.51;88.68
72636;BME280;60679;48.888;15.544;2022-11-18T01:39:49;94664.69;;;2.55;88.73
72636;BME280;60679;48.888;15.544;2022-11-18T01:42:15;94663.03;;;2.54;88.41
72636;BME280;60679;48.888;15.544;2022-11-18T01:47:24;94657.50;;;2.56;88.51
72636;BME280;60679;48.888;15.544;2022-11-18T01:49:52;94650.75;;;2.53;88.30
72636;BME280;60679;48.888;15.544;2022-11-18T01:52:17;94631.94;;;2.48;88.45
72636;BME280;60679;48.888;15.544;2022-11-18T01:54:47;94618.00;;;2.46;88.48
72636;BME280;60679;48.888;15.544;2022-11-18T01:57:19;94618.63;;;2.48;88.69
72636;BME280;60679;48.888;15.544;2022-11-18T01:59:49;94607.97;;;2.48;88.62
72636;BME280;60679;48.888;15.544;2022-11-18T02:02:17;94598.53;;;2.46;88.32
72636;BME280;60679;48.888;15.544;2022-11-18T02:04:47;94597.53;;;2.47;88.61
72636;BME280;60679;48.888;15.544;2022-11-18T02:07:14;94589.34;;;2.48;88.58
72636;BME280;60679;48.888;15.544;2022-11-18T02:09:41;94596.06;;;2.51;88.48
72636;BME280;60679;48.888;15.544;2022-11-18T02:12:06;94601.59;;;2.49;88.44
72636;BME280;60679;48.888;15.544;2022-11-18T02:14:36;94600.19;;;2.47;88.26
72636;BME280;60679;48.888;15.544;2022-11-18T02:28:02;94577.88;;;2.41;88.40
72636;BME280;60679;48.888;15.544;2022-11-18T02:33:16;94564.56;;;2.41;88.39
72636;BME280;60679;48.888;15.544;2022-11-18T02:35:49;94549.03;;;2.38;88.42
72636;BME280;60679;48.888;15.544;2022-11-18T02:38:23;94568.94;;;2.29;88.24
72636;BME280;60679;48.888;15.544;2022-11-18T02:40:55;94591.31;;;2.28;88.70
72636;BME280;60679;48.888;15.544;2022-11-18T02:43:28;94615.84;;;2.30;88.63
72636;BME280;60679;48.888;15.544;2022-11-18T02:45:59;94637.81;;;2.25;88.40
72636;BME280;60679;48.888;15.544;2022-11-18T02:48:29;94625.94;;;2.21;88.62
72636;BME280;60679;48.888;15.544;2022-11-18T02:50:57;94622.50;;;2.14;88.52
72636;BME280;60679;48.888;15.544;2022-11-18T02:53:24;94625.78;;;2.16;88.57
72636;BME280;60679;48.888;15.544;2022-11-18T02:55:53;94619.19;;;2.19;88.84
72636;BME280;60679;48.888;15.544;2022-11-18T02:58:20;94624.72;;;2.17;88.59
72636;BME280;60679;48.888;15.544;2022-11-18T03:00:57;94639.91;;;2.17;88.49
72636;BME280;60679;48.888;15.544;2022-11-18T03:03:34;94632.72;;;2.17;88.64
72636;BME280;60679;48.888;15.544;2022-11-18T03:06:22;94625.38;;;2.13;88.54
72636;BME280;60679;48.888;15.544;2022-11-18T03:09:04;94610.63;;;2.10;88.53
72636;BME280;60679;48.888;15.544;2022-11-18T03:14:24;94586.72;;;2.04;88.60
72636;BME280;60679;48.888;15.544;2022-11-18T03:17:09;94589.00;;;2.00;88.61
72636;BME280;60679;48.888;15.544;2022-11-18T03:22:13;94611.72;;;2.03;88.87
72636;BME280;60679;48.888;15.544;2022-11-18T03:24:54;94606.38;;;2.03;88.54
72636;BME280;60679;48.888;15.544;2022-11-18T03:27:31;94608.66;;;1.99;88.63
72636;BME280;60679;48.888;15.544;2022-11-18T03:30:05;94609.47;;;2.00;88.66
72636;BME280;60679;48.888;15.544;2022-11-18T03:32:44;94597.00;;;2.00;88.55
72636;BME280;60679;48.888;15.544;2022-11-18T03:35:17;94601.09;;;1.96;88.62
72636;BME280;60679;48.888;15.544;2022-11-18T03:37:46;94616.47;;;1.94;88.68
72636;BME280;60679;48.888;15.544;2022-11-18T03:40:17;94618.13;;;1.89;88.58
72636;BME280;60679;48.888;15.544;2022-11-18T03:42:48;94607.06;;;1.92;88.88
72636;BME280;60679;48.888;15.544;2022-11-18T03:45:22;94617.91;;;1.90;88.90
72636;BME280;60679;48.888;15.544;2022-11-18T03:47:58;94614.00;;;1.93;88.63
72636;BME280;60679;48.888;15.544;2022-11-18T03:50:29;94610.56;;;1.86;88.88
72636;BME280;60679;48.888;15.544;2022-11-18T03:52:55;94596.41;;;1.92;88.95
72636;BME280;60679;48.888;15.544;2022-11-18T03:55:26;94598.00;;;1.99;89.01
72636;BME280;60679;48.888;15.544;2022-11-18T04:00:22;94591.84;;;2.05;88.71
72636;BME280;60679;48.888;15.544;2022-11-18T04:02:50;94583.84;;;2.05;88.91
72636;BME280;60679;48.888;15.544;2022-11-18T04:05:17;94585.69;;;2.05;88.65
72636;BME280;60679;48.888;15.544;2022-11-18T04:07:58;94582.00;;;2.06;88.78
72636;BME280;60679;48.888;15.544;2022-11-18T04:10:33;94593.44;;;2.06;88.71
72636;BME280;60679;48.888;15.544;2022-11-18T04:13:08;94602.25;;;2.07;88.66
72636;BME280;60679;48.888;15.544;2022-11-18T04:15:38;94608.00;;;2.04;88.75
72636;BME280;60679;48.888;15.544;2022-11-18T04:18:04;94615.63;;;2.00;88.65
72636;BME280;60679;48.888;15.544;2022-11-18T04:20:30;94618.06;;;2.02;88.79
72636;BME280;60679;48.888;15.544;2022-11-18T04:22:56;94611.50;;;2.04;88.86
72636;BME280;60679;48.888;15.544;2022-11-18T04:25:22;94611.28;;;2.06;89.01
72636;BME280;60679;48.888;15.544;2022-11-18T04:27:49;94613.13;;;2.05;88.64
72636;BME280;60679;48.888;15.544;2022-11-18T04:30:14;94612.31;;;2.05;88.73
72636;BME280;60679;48.888;15.544;2022-11-18T04:32:40;94612.91;;;2.07;88.98
72636;BME280;60679;48.888;15.544;2022-11-18T04:35:05;94607.97;;;2.10;88.62
72636;BME280;60679;48.888;15.544;2022-11-18T04:37:30;94606.72;;;2.13;88.91
72636;BME280;60679;48.888;15.544;2022-11-18T04:39:56;94607.97;;;2.10;88.68
72636;BME280;60679;48.888;15.544;2022-11-18T04:42:21;94618.22;;;2.07;88.65
72636;BME280;60679;48.888;15.544;2022-11-18T04:44:47;94616.00;;;2.04;88.55
72636;BME280;60679;48.888;15.544;2022-11-18T04:47:12;94622.56;;;2.01;88.84
72636;BME280;60679;48.888;15.544;2022-11-18T04:49:37;94616.88;;;1.91;88.76
72636;BME280;60679;48.888;15.544;2022-11-18T04:52:03;94614.00;;;1.93;89.04
72636;BME280;60679;48.888;15.544;2022-11-18T04:54:29;94609.31;;;1.95;88.94
72636;BME280;60679;48.888;15.544;2022-11-18T04:56:55;94613.97;;;1.99;88.93
72636;BME280;60679;48.888;15.544;2022-11-18T04:59:23;94610.50;;;1.99;88.71
72636;BME280;60679;48.888;15.544;2022-11-18T05:01:50;94603.75;;;1.96;88.81
72636;BME280;60679;48.888;15.544;2022-11-18T05:04:18;94597.59;;;1.96;88.85
72636;BME280;60679;48.888;15.544;2022-11-18T05:06:44;94597.84;;;1.94;89.00
72636;BME280;60679;48.888;15.544;2022-11-18T05:09:10;94596.59;;;1.97;88.77
72636;BME280;60679;48.888;15.544;2022-11-18T05:11:35;94587.56;;;1.98;88.83
72636;BME280;60679;48.888;15.544;2022-11-18T05:14:20;94590.44;;;1.96;88.78
72636;BME280;60679;48.888;15.544;2022-11-18T05:16:45;94586.97;;;1.96;88.73
72636;BME280;60679;48.888;15.544;2022-11-18T05:19:11;94584.69;;;1.99;88.99
72636;BME280;60679;48.888;15.544;2022-11-18T05:21:37;94581.22;;;1.99;88.94
72636;BME280;60679;48.888;15.544;2022-11-18T05:24:03;94577.53;;;2.00;88.92
72636;BME280;60679;48.888;15.544;2022-11-18T05:26:29;94578.56;;;1.99;88.93
72636;BME280;60679;48.888;15.544;2022-11-18T05:28:58;94558.50;;;1.96;88.84
72636;BME280;60679;48.888;15.544;2022-11-18T05:31:23;94562.41;;;1.94;88.88
72636;BME280;60679;48.888;15.544;2022-11-18T05:33:50;94557.91;;;1.94;89.03
72636;BME280;60679;48.888;15.544;2022-11-18T05:36:17;94545.84;;;1.92;88.99
72636;BME280;60679;48.888;15.544;2022-11-18T05:38:43;94561.19;;;1.90;89.04
72636;BME280;60679;48.888;15.544;2022-11-18T05:41:11;94564.69;;;1.90;89.18
72636;BME280;60679;48.888;15.544;2022-11-18T05:44:00;94578.38;;;1.94;89.35
72636;BME280;60679;48.888;15.544;2022-11-18T05:46:26;94569.38;;;1.95;88.95
72636;BME280;60679;48.888;15.544;2022-11-18T05:48:52;94565.47;;;1.97;88.98
72636;BME280;60679;48.888;15.544;2022-11-18T05:51:18;94564.22;;;2.00;88.94
72636;BME280;60679;48.888;15.544;2022-11-18T05:53:44;94575.03;;;2.05;89.01
72636;BME280;60679;48.888;15.544;2022-11-18T05:56:19;94576.47;;;2.07;89.11
72636;BME280;60679;48.888;15.544;2022-11-18T05:58:46;94574.44;;;2.03;88.89
72636;BME280;60679;48.888;15.544;2022-11-18T06:01:16;94568.06;;;2.04;88.81
72636;BME280;60679;48.888;15.544;2022-11-18T06:03:42;94569.72;;;2.05;88.96
72636;BME280;60679;48.888;15.544;2022-11-18T06:06:09;94577.06;;;2.09;88.93
72636;BME280;60679;48.888;15.544;2022-11-18T06:08:39;94589.94;;;2.12;88.92
72636;BME280;60679;48.888;15.544;2022-11-18T06:11:11;94586.84;;;2.15;88.97
72636;BME280;60679;48.888;15.544;2022-11-18T06:13:45;94579.69;;;2.16;88.81
72636;BME280;60679;48.888;15.544;2022-11-18T06:16:25;94587.44;;;2.17;88.88
72636;BME280;60679;48.888;15.544;2022-11-18T06:18:52;94595.00;;;2.20;88.92
72636;BME280;60679;48.888;15.544;2022-11-18T06:21:18;94591.56;;;2.20;88.87
72636;BME280;60679;48.888;15.544;2022-11-18T06:23:44;94584.75;;;2.24;89.17
72636;BME280;60679;48.888;15.544;2022-11-18T06:26:09;94587.41;;;2.24;89.02
72636;BME280;60679;48.888;15.544;2022-11-18T06:28:37;94599.28;;;2.28;88.87
72636;BME280;60679;48.888;15.544;2022-11-18T06:31:03;94604.22;;;2.24;88.65
72636;BME280;60679;48.888;15.544;2022-11-18T06:33:29;94614.28;;;2.22;88.79
72636;BME280;60679;48.888;15.544;2022-11-18T06:35:54;94604.63;;;2.28;88.74
72636;BME280;60679;48.888;15.544;2022-11-18T06:38:22;94596.41;;;2.29;88.86
72636;BME280;60679;48.888;15.544;2022-11-18T06:40:48;94601.31;;;2.32;88.78
72636;BME280;60679;48.888;15.544;2022-11-18T06:43:13;94608.47;;;2.32;88.72
72636;BME280;60679;48.888;15.544;2022-11-18T06:45:58;94613.78;;;2.32;88.67
72636;BME280;60679;48.888;15.544;2022-11-18T06:48:42;94610.53;;;2.30;88.55
72636;BME280;60679;48.888;15.544;2022-11-18T06:51:08;94601.72;;;2.29;88.72
72636;BME280;60679;48.888;15.544;2022-11-18T06:53:37;94606.84;;;2.31;88.57
72636;BME280;60679;48.888;15.544;2022-11-18T06:59:34;94611.53;;;2.36;88.53
72636;BME280;60679;48.888;15.544;2022-11-18T07:02:00;94615.59;;;2.38;88.76
72636;BME280;60679;48.888;15.544;2022-11-18T07:04:34;94608.84;;;2.42;88.31
72636;BME280;60679;48.888;15.544;2022-11-18T07:07:04;94591.38;;;2.46;88.46
72636;BME280;60679;48.888;15.544;2022-11-18T07:09:30;94586.25;;;2.51;88.26
72636;BME280;60679;48.888;15.544;2022-11-18T07:11:56;94593.78;;;2.54;88.20
72636;BME280;60679;48.888;15.544;2022-11-18T07:14:22;94605.41;;;2.60;88.00
72636;BME280;60679;48.888;15.544;2022-11-18T07:16:47;94600.63;;;2.68;87.90
72636;BME280;60679;48.888;15.544;2022-11-18T07:19:13;94605.34;;;2.73;87.68
72636;BME280;60679;48.888;15.544;2022-11-18T07:21:42;94605.75;;;2.70;88.08
72636;BME280;60679;48.888;15.544;2022-11-18T07:24:13;94611.50;;;2.73;88.14
72636;BME280;60679;48.888;15.544;2022-11-18T07:26:38;94608.44;;;2.70;88.04
72636;BME280;60679;48.888;15.544;2022-11-18T07:29:04;94611.28;;;2.68;87.91
72636;BME280;60679;48.888;15.544;2022-11-18T07:31:29;94613.16;;;2.68;88.26
72636;BME280;60679;48.888;15.544;2022-11-18T07:33:58;94614.19;;;2.67;88.27
72636;BME280;60679;48.888;15.544;2022-11-18T07:36:41;94617.44;;;2.69;88.45
72636;BME280;60679;48.888;15.544;2022-11-18T07:39:19;94610.66;;;2.73;88.17
72636;BME280;60679;48.888;15.544;2022-11-18T07:41:47;94610.00;;;2.77;88.04
72636;BME280;60679;48.888;15.544;2022-11-18T07:44:25;94616.94;;;2.85;88.23
72636;BME280;60679;48.888;15.544;2022-11-18T07:46:50;94616.47;;;2.88;88.22
72636;BME280;60679;48.888;15.544;2022-11-18T07:49:28;94610.72;;;2.91;87.99
72636;BME280;60679;48.888;15.544;2022-11-18T07:51:53;94614.00;;;2.93;87.87
72636;BME280;60679;48.888;15.544;2022-11-18T07:54:25;94610.91;;;2.96;88.04
72636;BME280;60679;48.888;15.544;2022-11-18T07:56:50;94607.84;;;2.92;88.21
72636;BME280;60679;48.888;15.544;2022-11-18T07:59:15;94611.53;;;2.91;88.20
72636;BME280;60679;48.888;15.544;2022-11-18T08:01:41;94612.50;;;2.97;88.15
72636;BME280;60679;48.888;15.544;2022-11-18T08:04:09;94610.34;;;3.12;87.87
72636;BME280;60679;48.888;15.544;2022-11-18T08:06:35;94605.09;;;3.24;87.36
72636;BME280;60679;48.888;15.544;2022-11-18T08:09:01;94606.91;;;3.30;87.30
72636;BME280;60679;48.888;15.544;2022-11-18T08:11:27;94602.31;;;3.37;87.40
72636;BME280;60679;48.888;15.544;2022-11-18T08:13:53;94600.75;;;3.47;87.13
72636;BME280;60679;48.888;15.544;2022-11-18T08:16:20;94605.81;;;3.56;87.12
72636;BME280;60679;48.888;15.544;2022-11-18T08:18:47;94590.31;;;3.64;86.78
72636;BME280;60679;48.888;15.544;2022-11-18T08:21:13;94595.56;;;3.71;87.01
72636;BME280;60679;48.888;15.544;2022-11-18T08:23:39;94588.63;;;3.70;86.88
72636;BME280;60679;48.888;15.544;2022-11-18T08:26:14;94596.25;;;3.66;86.96
72636;BME280;60679;48.888;15.544;2022-11-18T08:28:43;94597.59;;;3.57;87.22
72636;BME280;60679;48.888;15.544;2022-11-18T08:33:36;94593.72;;;3.53;87.47
72636;BME280;60679;48.888;15.544;2022-11-18T08:36:29;94596.56;;;3.58;87.26
72636;BME280;60679;48.888;15.544;2022-11-18T08:38:56;94597.34;;;3.59;87.46
72636;BME280;60679;48.888;15.544;2022-11-18T08:41:42;94603.31;;;3.61;87.23
72636;BME280;60679;48.888;15.544;2022-11-18T08:44:11;94603.31;;;3.61;87.42
72636;BME280;60679;48.888;15.544;2022-11-18T08:46:37;94603.75;;;3.58;87.36
72636;BME280;60679;48.888;15.544;2022-11-18T08:49:02;94609.53;;;3.55;87.27
72636;BME280;60679;48.888;15.544;2022-11-18T08:51:28;94601.66;;;3.60;87.43
72636;BME280;60679;48.888;15.544;2022-11-18T08:53:54;94604.47;;;3.65;87.56
72636;BME280;60679;48.888;15.544;2022-11-18T08:56:21;94599.56;;;3.62;87.51
72636;BME280;60679;48.888;15.544;2022-11-18T08:58:47;94602.34;;;3.55;87.37
72636;BME280;60679;48.888;15.544;2022-11-18T09:01:13;94603.81;;;3.51;87.69
72636;BME280;60679;48.888;15.544;2022-11-18T09:03:39;94604.81;;;3.50;87.60
72636;BME280;60679;48.888;15.544;2022-11-18T09:08:33;94593.59;;;3.66;87.50
72636;BME280;60679;48.888;15.544;2022-11-18T09:11:11;94594.84;;;3.82;87.27
72636;BME280;60679;48.888;15.544;2022-11-18T09:13:37;94590.97;;;3.96;86.79
72636;BME280;60679;48.888;15.544;2022-11-18T09:16:03;94591.66;;;3.91;87.04
72636;BME280;60679;48.888;15.544;2022-11-18T09:18:29;94599.28;;;3.88;87.31
72636;BME280;60679;48.888;15.544;2022-11-18T09:20:57;94591.78;;;3.96;86.86
72636;BME280;60679;48.888;15.544;2022-11-18T09:23:22;94597.50;;;4.00;86.95
72636;BME280;60679;48.888;15.544;2022-11-18T09:25:48;94597.25;;;4.01;87.15
72636;BME280;60679;48.888;15.544;2022-11-18T09:28:13;94600.44;;;4.10;86.95
72636;BME280;60679;48.888;15.544;2022-11-18T09:30:39;94592.94;;;4.19;86.70
72636;BME280;60679;48.888;15.544;2022-11-18T09:33:05;94599.22;;;4.24;86.49
72636;BME280;60679;48.888;15.544;2022-11-18T09:35:32;94596.34;;;4.26;86.50
72636;BME280;60679;48.888;15.544;2022-11-18T09:37:58;94598.41;;;4.24;86.63
72636;BME280;60679;48.888;15.544;2022-11-18T09:40:23;94591.47;;;4.23;86.71
72636;BME280;60679;48.888;15.544;2022-11-18T09:42:53;94596.44;;;4.19;86.99
72636;BME280;60679;48.888;15.544;2022-11-18T09:45:23;94580.63;;;4.18;87.23
72636;BME280;60679;48.888;15.544;2022-11-18T09:47:50;94577.72;;;4.19;87.12
72636;BME280;60679;48.888;15.544;2022-11-18T09:50:22;94578.00;;;4.29;86.94
72636;BME280;60679;48.888;15.544;2022-11-18T09:53:10;94578.84;;;4.41;86.42
72636;BME280;60679;48.888;15.544;2022-11-18T09:55:39;94582.63;;;4.63;85.86
72636;BME280;60679;48.888;15.544;2022-11-18T09:58:34;94577.22;;;4.82;85.92
72636;BME280;60679;48.888;15.544;2022-11-18T10:01:01;94580.47;;;4.84;85.80
72636;BME280;60679;48.888;15.544;2022-11-18T10:03:31;94577.22;;;4.82;86.21
72636;BME280;60679;48.888;15.544;2022-11-18T10:06:09;94570.03;;;4.82;86.24
72636;BME280;60679;48.888;15.544;2022-11-18T10:23:13;94573.66;;;5.22;85.63
72636;BME280;60679;48.888;15.544;2022-11-18T10:25:41;94576.09;;;5.12;86.03
72636;BME280;60679;48.888;15.544;2022-11-18T10:28:23;94576.53;;;4.98;86.21
72636;BME280;60679;48.888;15.544;2022-11-18T10:30:51;94580.03;;;4.87;86.41
72636;BME280;60679;48.888;15.544;2022-11-18T10:39:09;94588.81;;;4.64;86.77
72636;BME280;60679;48.888;15.544;2022-11-18T10:41:54;94585.31;;;4.63;86.66
72636;BME280;60679;48.888;15.544;2022-11-18T10:44:41;94589.16;;;4.68;86.43
72636;BME280;60679;48.888;15.544;2022-11-18T10:47:30;94581.63;;;4.76;86.40
72636;BME280;60679;48.888;15.544;2022-11-18T10:52:52;94574.47;;;5.11;85.61
72636;BME280;60679;48.888;15.544;2022-11-18T10:55:19;94571.22;;;5.33;85.28
72636;BME280;60679;48.888;15.544;2022-11-18T10:57:46;94575.28;;;5.58;85.00
72636;BME280;60679;48.888;15.544;2022-11-18T11:00:45;94576.75;;;5.77;84.64
72636;BME280;60679;48.888;15.544;2022-11-18T11:05:47;94573.84;;;5.67;85.15
72636;BME280;60679;48.888;15.544;2022-11-18T11:08:20;94584.34;;;5.57;85.46
72636;BME280;60679;48.888;15.544;2022-11-18T11:10:57;94578.44;;;5.44;85.62
72636;BME280;60679;48.888;15.544;2022-11-18T11:13:26;94582.50;;;5.35;85.79
72636;BME280;60679;48.888;15.544;2022-11-18T11:15:54;94582.03;;;5.26;86.07
72636;BME280;60679;48.888;15.544;2022-11-18T11:18:23;94582.63;;;5.16;86.37
72636;BME280;60679;48.888;15.544;2022-11-18T11:21:12;94585.16;;;5.11;86.08
72636;BME280;60679;48.888;15.544;2022-11-18T11:23:38;94581.91;;;5.09;86.22
72636;BME280;60679;48.888;15.544;2022-11-18T11:28:44;94581.34;;;5.07;85.83
72636;BME280;60679;48.888;15.544;2022-11-18T11:31:29;94582.94;;;4.97;86.23
72636;BME280;60679;48.888;15.544;2022-11-18T11:44:58;94592.28;;;4.64;86.60
72636;BME280;60679;48.888;15.544;2022-11-18T11:47:35;94591.72;;;4.62;86.53
72636;BME280;60679;48.888;15.544;2022-11-18T12:06:50;94593.94;;;4.65;86.33
72636;BME280;60679;48.888;15.544;2022-11-18T12:09:18;94603.69;;;4.72;86.55
72636;BME280;60679;48.888;15.544;2022-11-18T12:11:54;94597.19;;;4.68;86.49
72636;BME280;60679;48.888;15.544;2022-11-18T12:17:00;94597.09;;;4.74;86.28
72636;BME280;60679;48.888;15.544;2022-11-18T12:19:30;94591.88;;;4.79;86.35
72636;BME280;60679;48.888;15.544;2022-11-18T12:22:00;94608.25;;;4.83;86.16
72636;BME280;60679;48.888;15.544;2022-11-18T12:24:38;94598.28;;;4.90;86.29
72636;BME280;60679;48.888;15.544;2022-11-18T12:30:02;94599.13;;;5.48;84.90
72636;BME280;60679;48.888;15.544;2022-11-18T12:35:03;94596.59;;;5.42;85.19
72636;BME280;60679;48.888;15.544;2022-11-18T12:42:41;94598.78;;;5.45;85.31
72636;BME280;60679;48.888;15.544;2022-11-18T12:50:50;94601.00;;;5.48;85.37
72636;BME280;60679;48.888;15.544;2022-11-18T12:53:34;94604.63;;;5.42;85.61
72636;BME280;60679;48.888;15.544;2022-11-18T12:58:37;94606.91;;;5.15;86.00
72636;BME280;60679;48.888;15.544;2022-11-18T13:01:14;94610.84;;;5.01;86.45
72636;BME280;60679;48.888;15.544;2022-11-18T13:03:40;94603.16;;;4.93;86.63
72636;BME280;60679;48.888;15.544;2022-11-18T13:08:38;94615.25;;;4.84;86.40
72636;BME280;60679;48.888;15.544;2022-11-18T13:11:15;94617.78;;;4.79;86.54
72636;BME280;60679;48.888;15.544;2022-11-18T13:14:01;94611.72;;;4.72;86.73
72636;BME280;60679;48.888;15.544;2022-11-18T13:16:47;94620.06;;;4.63;86.62
72636;BME280;60679;48.888;15.544;2022-11-18T13:19:31;94614.38;;;4.60;86.86
72636;BME280;60679;48.888;15.544;2022-11-18T13:22:01;94616.44;;;4.58;86.89
72636;BME280;60679;48.888;15.544;2022-11-18T13:24:47;94619.44;;;4.50;86.83
72636;BME280;60679;48.888;15.544;2022-11-18T13:27:47;94628.22;;;4.39;86.97
72636;BME280;60679;48.888;15.544;2022-11-18T13:30:14;94623.41;;;4.29;87.07
72636;BME280;60679;48.888;15.544;2022-11-18T13:32:44;94626.75;;;4.25;87.09
72636;BME280;60679;48.888;15.544;2022-11-18T13:35:14;94632.78;;;4.20;87.22
72636;BME280;60679;48.888;15.544;2022-11-18T13:37:52;94634.06;;;4.18;87.23
72636;BME280;60679;48.888;15.544;2022-11-18T13:40:29;94629.50;;;4.18;87.36
72636;BME280;60679;48.888;15.544;2022-11-18T13:42:55;94635.66;;;4.19;87.36
72636;BME280;60679;48.888;15.544;2022-11-18T13:45:25;94631.97;;;4.20;86.99
72636;BME280;60679;48.888;15.544;2022-11-18T13:47:56;94637.53;;;4.18;87.33
72636;BME280;60679;48.888;15.544;2022-11-18T13:50:43;94638.34;;;4.19;87.05
72636;BME280;60679;48.888;15.544;2022-11-18T13:53:28;94636.34;;;4.14;87.23
72636;BME280;60679;48.888;15.544;2022-11-18T13:55:58;94642.34;;;4.09;87.72
72636;BME280;60679;48.888;15.544;2022-11-18T13:58:39;94647.69;;;4.09;87.55
72636;BME280;60679;48.888;15.544;2022-11-18T14:01:29;94647.69;;;4.09;87.46
72636;BME280;60679;48.888;15.544;2022-11-18T14:04:04;94642.34;;;4.09;87.44
72636;BME280;60679;48.888;15.544;2022-11-18T14:06:39;94641.31;;;4.11;87.68
72636;BME280;60679;48.888;15.544;2022-11-18T14:14:00;94649.19;;;4.05;87.50
72636;BME280;60679;48.888;15.544;2022-11-18T14:16:32;94646.97;;;4.02;87.98
72636;BME280;60679;48.888;15.544;2022-11-18T14:18:58;94649.06;;;4.00;87.91
72636;BME280;60679;48.888;15.544;2022-11-18T14:21:28;94658.91;;;4.00;87.83
72636;BME280;60679;48.888;15.544;2022-11-18T14:23:55;94656.69;;;3.97;87.56
72636;BME280;60679;48.888;15.544;2022-11-18T14:26:35;94660.38;;;3.96;87.71
72636;BME280;60679;48.888;15.544;2022-11-18T14:29:16;94657.13;;;3.94;87.91
72636;BME280;60679;48.888;15.544;2022-11-18T14:32:22;94654.91;;;3.91;87.85
72636;BME280;60679;48.888;15.544;2022-11-18T14:34:58;94664.19;;;3.88;87.75
72636;BME280;60679;48.888;15.544;2022-11-18T14:37:26;94662.78;;;3.86;87.91
72636;BME280;60679;48.888;15.544;2022-11-18T14:39:54;94660.53;;;3.83;87.96
72636;BME280;60679;48.888;15.544;2022-11-18T14:42:19;94666.31;;;3.80;88.04
72636;BME280;60679;48.888;15.544;2022-11-18T14:44:45;94662.69;;;3.74;87.96
72636;BME280;60679;48.888;15.544;2022-11-18T14:47:25;94665.41;;;3.68;88.09
72636;BME280;60679;48.888;15.544;2022-11-18T14:49:51;94668.97;;;3.62;88.26
72636;BME280;60679;48.888;15.544;2022-11-18T14:52:16;94676.59;;;3.58;88.20
72636;BME280;60679;48.888;15.544;2022-11-18T14:54:42;94684.44;;;3.53;88.28
72636;BME280;60679;48.888;15.544;2022-11-18T14:57:13;94687.78;;;3.48;88.29
72636;BME280;60679;48.888;15.544;2022-11-18T14:59:40;94689.47;;;3.43;88.49
72636;BME280;60679;48.888;15.544;2022-11-18T15:02:12;94701.38;;;3.40;88.23
72636;BME280;60679;48.888;15.544;2022-11-18T15:04:38;94695.66;;;3.37;88.11
72636;BME280;60679;48.888;15.544;2022-11-18T15:07:04;94701.66;;;3.32;88.36
72636;BME280;60679;48.888;15.544;2022-11-18T15:09:30;94702.28;;;3.28;88.42
72636;BME280;60679;48.888;15.544;2022-11-18T15:11:55;94702.53;;;3.26;88.37
72636;BME280;60679;48.888;15.544;2022-11-18T15:14:21;94703.78;;;3.24;88.51